createdAt,value
2018-06-21T00:59:41.111Z,7.40
2018-06-21T01:02:10.030Z,8.13
2018-06-21T01:04:38.418Z,7.97
2018-06-21T01:07:07.675Z,11.67
2018-06-21T01:09:36.425Z,7.17
2018-06-21T01:12:05.236Z,7.43
2018-06-21T01:14:33.955Z,7.70
2018-06-21T01:17:03.427Z,8.30
2018-06-21T01:19:31.997Z,11.17
2018-06-21T01:22:00.611Z,8.07
2018-06-21T01:24:29.534Z,10.47
2018-06-21T01:26:57.952Z,7.97
2018-06-21T01:29:26.212Z,7.90
2018-06-21T01:31:55.274Z,10.07
2018-06-21T01:34:23.887Z,7.83
2018-06-21T01:36:52.339Z,7.90
2018-06-21T01:39:21.079Z,8.10
2018-06-21T01:41:50.186Z,7.87
2018-06-21T01:44:18.910Z,7.87
2018-06-21T01:46:47.519Z,8.20
2018-06-21T01:49:15.910Z,7.60
2018-06-21T01:51:45.109Z,11.47
2018-06-21T01:54:13.609Z,8.10
2018-06-21T01:56:42.155Z,11.57
2018-06-21T01:59:10.533Z,8.20
2018-06-21T02:01:39.196Z,7.87
2018-06-21T02:04:08.120Z,8.50
2018-06-21T02:06:36.525Z,8.87
2018-06-21T02:09:07.770Z,11.80
2018-06-21T02:11:36.279Z,8.17
2018-06-21T02:14:11.582Z,8.50
2018-06-21T02:16:40.245Z,8.30
2018-06-21T02:19:09.172Z,11.93
2018-06-21T02:21:38.363Z,8.73
2018-06-21T02:24:07.225Z,11.63
2018-06-21T02:26:35.653Z,8.43
2018-06-21T02:29:04.139Z,11.70
2018-06-21T02:31:33.401Z,8.33
2018-06-21T02:34:01.815Z,12.73
2018-06-21T02:36:30.456Z,8.17
2018-06-21T02:38:59.494Z,9.10
2018-06-21T02:41:27.993Z,8.57
2018-06-21T02:43:56.867Z,12.77
2018-06-21T02:46:25.348Z,8.87
2018-06-21T02:48:54.125Z,12.63
2018-06-21T02:51:22.613Z,9.23
2018-06-21T02:53:54.345Z,9.10
2018-06-21T02:56:22.608Z,9.30
2018-06-21T02:58:51.328Z,9.07
2018-06-21T03:01:19.814Z,12.57
2018-06-21T03:03:48.256Z,9.23
2018-06-21T03:06:17.993Z,13.40
2018-06-21T03:08:46.483Z,9.10
2018-06-21T03:11:14.914Z,13.33
2018-06-21T03:13:45.004Z,9.77
2018-06-21T03:16:13.602Z,12.67
2018-06-21T03:18:42.245Z,9.37
2018-06-21T03:21:11.192Z,12.43
2018-06-21T03:23:39.591Z,8.63
2018-06-21T03:26:08.604Z,8.97
2018-06-21T03:28:37.347Z,9.10
2018-06-21T03:31:06.297Z,9.67
2018-06-21T03:33:35.048Z,9.30
2018-06-21T03:36:04.400Z,9.23
2018-06-21T03:38:33.598Z,9.43
2018-06-21T03:41:02.147Z,8.40
2018-06-21T03:43:31.194Z,8.47
2018-06-21T03:45:59.965Z,13.47
2018-06-21T03:48:28.627Z,9.00
2018-06-21T03:50:57.266Z,8.63
2018-06-21T03:53:25.841Z,8.90
2018-06-21T03:55:54.231Z,8.10
2018-06-21T03:58:23.356Z,8.80
2018-06-21T04:00:52.116Z,8.67
2018-06-21T04:03:20.528Z,12.00
2018-06-21T04:05:50.538Z,7.73
2018-06-21T04:08:18.976Z,8.20
2018-06-21T04:10:47.509Z,11.73
2018-06-21T04:13:15.893Z,9.00
2018-06-21T04:15:44.296Z,11.27
2018-06-21T04:18:12.674Z,8.57
2018-06-21T04:20:43.515Z,8.10
2018-06-21T04:23:11.983Z,7.77
2018-06-21T04:25:40.420Z,10.47
2018-06-21T04:28:08.940Z,7.47
2018-06-21T04:30:37.778Z,7.10
2018-06-21T04:33:06.338Z,7.30
2018-06-21T04:35:34.788Z,7.07
2018-06-21T04:38:04.317Z,10.33
2018-06-21T04:40:32.791Z,6.77
2018-06-21T04:43:01.909Z,7.10
2018-06-21T04:45:31.591Z,6.60
2018-06-21T04:48:00.080Z,9.57
2018-06-21T04:50:28.598Z,6.77
2018-06-21T04:52:59.212Z,6.77
2018-06-21T04:55:27.933Z,6.67
2018-06-21T04:57:57.260Z,6.73
2018-06-21T05:00:25.877Z,6.47
2018-06-21T05:02:54.467Z,6.37
2018-06-21T05:05:22.858Z,6.43
2018-06-21T05:07:51.464Z,5.87
2018-06-21T05:10:19.858Z,6.37
2018-06-21T05:12:48.298Z,6.00
2018-06-21T05:15:16.947Z,5.97
2018-06-21T05:17:45.557Z,6.40
2018-06-21T05:20:14.620Z,5.80
2018-06-21T05:22:43.055Z,5.63
2018-06-21T05:25:11.639Z,5.33
2018-06-21T05:27:40.994Z,5.63
2018-06-21T05:30:09.436Z,5.50
2018-06-21T05:32:37.845Z,6.10
2018-06-21T05:35:06.837Z,5.50
2018-06-21T05:37:35.238Z,5.40
2018-06-21T05:40:04.032Z,5.60
2018-06-21T05:42:32.535Z,5.28
2018-06-21T05:45:01.257Z,5.13
2018-06-21T05:47:29.882Z,5.23
2018-06-21T05:49:58.996Z,4.90
2018-06-21T05:52:27.678Z,4.50
2018-06-21T05:54:56.064Z,4.33
2018-06-21T05:57:25.060Z,4.00
2018-06-21T05:59:53.468Z,4.07
2018-06-21T06:02:21.985Z,3.90
2018-06-21T06:04:52.752Z,4.20
2018-06-21T06:07:21.552Z,3.83
2018-06-21T06:09:50.305Z,4.03
2018-06-21T06:12:20.927Z,4.10
2018-06-21T06:14:49.412Z,3.90
2018-06-21T06:17:18.209Z,4.00
2018-06-21T06:19:46.597Z,3.97
2018-06-21T06:22:15.342Z,4.13
2018-06-21T06:24:43.990Z,4.10
2018-06-21T06:27:12.616Z,4.50
2018-06-21T06:29:41.717Z,3.67
2018-06-21T06:32:10.544Z,3.52
2018-06-21T06:34:39.220Z,4.10
2018-06-21T06:37:08.587Z,4.03
2018-06-21T06:39:37.117Z,3.98
2018-06-21T06:42:06.455Z,4.03
2018-06-21T06:44:35.020Z,3.80
2018-06-21T06:47:03.448Z,4.35
2018-06-21T06:49:32.214Z,3.80
2018-06-21T06:52:00.794Z,3.67
2018-06-21T06:54:30.605Z,3.50
2018-06-21T06:56:59.749Z,3.77
2018-06-21T06:59:28.507Z,3.50
2018-06-21T07:01:57.143Z,3.85
2018-06-21T07:04:25.595Z,3.05
2018-06-21T07:06:54.030Z,3.70
2018-06-21T07:09:23.872Z,4.00
2018-06-21T07:11:52.361Z,3.75
2018-06-21T07:14:21.429Z,3.42
2018-06-21T07:16:49.917Z,3.52
2018-06-21T07:19:18.773Z,3.40
2018-06-21T07:21:47.956Z,3.00
2018-06-21T07:24:17.025Z,3.20
2018-06-21T07:26:46.160Z,2.87
2018-06-21T07:29:15.054Z,3.08
2018-06-21T07:31:48.668Z,3.30
2018-06-21T07:34:19.643Z,3.30
2018-06-21T07:36:48.899Z,3.08
2018-06-21T07:39:18.229Z,3.27
2018-06-21T07:41:47.129Z,3.15
2018-06-21T07:44:16.488Z,3.30
2018-06-21T07:46:45.015Z,3.27
2018-06-21T07:49:13.797Z,2.92
2018-06-21T07:51:42.726Z,3.47
2018-06-21T07:54:12.407Z,3.40
2018-06-21T07:56:41.320Z,3.30
2018-06-21T07:59:10.106Z,3.20
2018-06-21T08:01:38.843Z,3.33
2018-06-21T08:04:07.821Z,3.75
2018-06-21T08:06:36.355Z,3.42
2018-06-21T08:09:08.642Z,3.27
2018-06-21T08:11:37.026Z,3.42
2018-06-21T08:14:05.739Z,3.60
2018-06-21T08:16:35.327Z,3.37
2018-06-21T08:19:03.756Z,3.35
2018-06-21T08:21:32.805Z,3.40
2018-06-21T08:24:01.253Z,3.50
2018-06-21T08:26:29.809Z,3.37
2018-06-21T08:28:58.492Z,3.35
2018-06-21T08:31:27.575Z,3.27
2018-06-21T08:33:56.585Z,3.22
2018-06-21T08:36:25.125Z,3.35
2018-06-21T08:38:54.495Z,2.98
2018-06-21T08:41:23.530Z,2.70
2018-06-21T08:43:52.490Z,2.92
2018-06-21T08:46:21.010Z,2.87
2018-06-21T08:48:50.866Z,2.70
2018-06-21T08:51:20.574Z,3.33
2018-06-21T08:53:49.191Z,3.17
2018-06-21T08:56:18.990Z,3.20
2018-06-21T08:58:47.572Z,3.30
2018-06-21T09:01:17.044Z,3.50
2018-06-21T09:03:46.883Z,3.20
2018-06-21T09:06:23.621Z,3.22
2018-06-21T09:08:52.328Z,3.00
2018-06-21T09:11:21.002Z,3.62
2018-06-21T09:13:49.586Z,3.65
2018-06-21T09:16:18.353Z,3.10
2018-06-21T09:18:46.952Z,3.05
2018-06-21T09:21:16.271Z,2.87
2018-06-21T09:23:44.669Z,3.22
2018-06-21T09:26:13.092Z,3.08
2018-06-21T09:28:41.748Z,3.10
2018-06-21T09:31:10.264Z,3.02
2018-06-21T09:33:39.509Z,3.10
2018-06-21T09:36:08.028Z,3.30
2018-06-21T09:38:42.138Z,2.90
2018-06-21T09:43:20.029Z,3.20
2018-06-21T09:45:54.013Z,2.83
2018-06-21T09:48:30.300Z,2.60
2018-06-21T09:51:00.076Z,3.10
2018-06-21T09:53:29.333Z,2.80
2018-06-21T09:55:59.551Z,3.05
2018-06-21T09:58:28.356Z,2.58
2018-06-21T10:01:04.139Z,3.00
2018-06-21T10:03:33.572Z,2.83
2018-06-21T10:06:02.212Z,2.67
2018-06-21T10:08:31.675Z,3.00
2018-06-21T10:11:00.189Z,3.20
2018-06-21T10:13:28.711Z,3.53
2018-06-21T10:15:57.323Z,3.20
2018-06-21T10:18:26.786Z,3.10
2018-06-21T10:20:55.373Z,3.40
2018-06-21T10:23:23.946Z,3.40
2018-06-21T10:25:52.782Z,3.47
2018-06-21T10:28:21.209Z,3.40
2018-06-21T10:30:49.590Z,3.40
2018-06-21T10:33:18.020Z,3.75
2018-06-21T10:35:46.457Z,3.87
2018-06-21T10:38:15.284Z,2.98
2018-06-21T10:40:44.277Z,3.57
2018-06-21T10:43:13.275Z,2.98
2018-06-21T10:45:42.056Z,3.10
2018-06-21T10:48:10.649Z,3.20
2018-06-21T10:50:39.371Z,3.00
2018-06-21T10:53:07.762Z,3.22
2018-06-21T10:55:36.335Z,2.85
2018-06-21T10:58:04.986Z,3.75
2018-06-21T11:00:33.450Z,3.00
2018-06-21T11:03:03.432Z,3.02
2018-06-21T11:05:32.033Z,3.05
2018-06-21T11:08:00.931Z,3.37
2018-06-21T11:10:29.628Z,3.10
2018-06-21T11:12:58.655Z,3.15
2018-06-21T11:15:27.904Z,3.10
2018-06-21T11:17:57.761Z,3.10
2018-06-21T11:20:27.092Z,3.00
2018-06-21T11:22:55.710Z,3.07
2018-06-21T11:25:25.011Z,3.07
2018-06-21T11:27:53.519Z,3.00
2018-06-21T11:30:22.484Z,2.80
2018-06-21T11:32:50.928Z,3.10
2018-06-21T11:35:19.573Z,2.80
2018-06-21T11:37:48.018Z,3.33
2018-06-21T11:40:16.493Z,3.13
2018-06-21T11:42:45.019Z,3.13
2018-06-21T11:45:15.054Z,3.33
2018-06-21T11:47:45.375Z,2.90
2018-06-21T11:50:13.968Z,3.17
2018-06-21T11:52:42.892Z,3.17
2018-06-21T11:55:11.473Z,3.13
2018-06-21T11:57:40.318Z,3.17
2018-06-21T12:00:08.980Z,3.53
2018-06-21T12:02:37.540Z,3.60
2018-06-21T12:05:06.190Z,3.50
2018-06-21T12:07:35.002Z,3.50
2018-06-21T12:10:03.751Z,3.53
2018-06-21T12:12:33.000Z,3.40
2018-06-21T12:15:01.823Z,3.70
2018-06-21T12:17:30.323Z,3.50
2018-06-21T12:19:58.717Z,3.60
2018-06-21T12:22:27.397Z,2.97
2018-06-21T12:24:55.700Z,2.90
2018-06-21T12:27:24.490Z,2.80
2018-06-21T12:29:52.955Z,3.10
2018-06-21T12:32:21.394Z,3.60
2018-06-21T12:34:50.527Z,2.97
2018-06-21T12:37:20.373Z,3.10
2018-06-21T12:39:48.850Z,3.23
2018-06-21T12:42:17.249Z,3.00
2018-06-21T12:44:45.888Z,3.10
2018-06-21T12:47:14.898Z,3.20
2018-06-21T12:49:43.588Z,3.23
2018-06-21T12:52:12.162Z,3.13
2018-06-21T12:54:41.159Z,3.03
2018-06-21T12:57:09.798Z,3.17
2018-06-21T12:59:38.427Z,3.30
2018-06-21T13:02:06.896Z,3.40
2018-06-21T13:04:35.468Z,3.43
2018-06-21T13:07:03.995Z,3.00
2018-06-21T13:09:44.628Z,3.20
2018-06-21T13:12:27.944Z,2.70
2018-06-21T13:14:57.494Z,3.13
2018-06-21T13:17:27.248Z,3.30
2018-06-21T13:19:56.163Z,3.10
2018-06-21T13:22:25.577Z,3.40
2018-06-21T13:24:54.127Z,3.10
2018-06-21T13:27:22.939Z,2.90
2018-06-21T13:29:51.954Z,3.00
2018-06-21T13:32:20.956Z,3.10
2018-06-21T13:34:50.372Z,3.10
2018-06-21T13:37:19.103Z,2.63
2018-06-21T13:39:48.772Z,2.90
2018-06-21T13:42:17.171Z,3.00
2018-06-21T13:44:46.866Z,3.20
2018-06-21T13:47:15.492Z,3.10
2018-06-21T13:49:43.576Z,3.20
2018-06-21T13:52:12.223Z,3.10
2018-06-21T13:54:40.944Z,3.40
2018-06-21T13:57:10.137Z,3.67
2018-06-21T13:59:38.517Z,3.00
2018-06-21T14:02:07.429Z,3.40
2018-06-21T14:04:36.399Z,3.00
2018-06-21T14:07:05.060Z,2.97
2018-06-21T14:09:33.984Z,3.20
2018-06-21T14:12:02.581Z,3.00
2018-06-21T14:14:32.631Z,3.23
2018-06-21T14:17:01.492Z,3.33
2018-06-21T14:19:30.327Z,3.23
2018-06-21T14:21:59.107Z,3.43
2018-06-21T14:24:28.830Z,3.10
2018-06-21T14:26:57.394Z,3.23
2018-06-21T14:29:26.368Z,3.47
2018-06-21T14:31:55.007Z,3.37
2018-06-21T14:34:23.620Z,3.10
2018-06-21T14:36:52.875Z,2.90
2018-06-21T14:39:21.668Z,3.23
2018-06-21T14:41:49.860Z,3.30
2018-06-21T14:44:18.745Z,3.47
2018-06-21T14:46:47.476Z,3.23
2018-06-21T14:49:16.949Z,3.27
2018-06-21T14:51:45.776Z,3.40
2018-06-21T14:54:15.449Z,3.20
2018-06-21T14:56:44.189Z,3.20
2018-06-21T14:59:13.280Z,3.57
2018-06-21T15:01:42.228Z,3.57
2018-06-21T15:04:10.941Z,3.50
2018-06-21T15:06:40.074Z,3.83
2018-06-21T15:09:11.352Z,3.73
2018-06-21T15:11:39.823Z,3.40
2018-06-21T15:14:09.765Z,3.20
2018-06-21T15:16:38.248Z,3.67
2018-06-21T15:19:10.212Z,3.57
2018-06-21T15:21:38.684Z,3.80
2018-06-21T15:24:07.616Z,3.27
2018-06-21T15:26:36.630Z,3.43
2018-06-21T15:29:05.239Z,4.10
2018-06-21T15:31:33.978Z,3.70
2018-06-21T15:34:02.705Z,3.57
2018-06-21T15:36:32.333Z,3.30
2018-06-21T15:39:02.521Z,3.40
2018-06-21T15:41:31.043Z,3.70
2018-06-21T15:44:00.126Z,3.20
2018-06-21T15:46:29.281Z,3.30
2018-06-21T15:48:59.431Z,2.97
2018-06-21T15:51:27.920Z,3.37
2018-06-21T15:53:57.222Z,3.50
2018-06-21T15:56:25.846Z,3.30
2018-06-21T15:58:54.609Z,3.73
2018-06-21T16:01:23.648Z,3.70
2018-06-21T16:03:52.097Z,3.70
2018-06-21T16:06:20.535Z,3.90
2018-06-21T16:08:49.459Z,3.83
2018-06-21T16:11:17.880Z,3.73
2018-06-21T16:13:46.501Z,3.67
2018-06-21T16:16:14.934Z,3.57
2018-06-21T16:18:43.481Z,3.70
2018-06-21T16:21:13.642Z,4.10
2018-06-21T16:23:42.536Z,5.27
2018-06-21T16:26:11.600Z,3.90
2018-06-21T16:28:40.727Z,3.80
2018-06-21T16:31:09.589Z,3.70
2018-06-21T16:33:38.159Z,3.90
2018-06-21T16:36:07.856Z,3.93
2018-06-21T16:38:36.282Z,4.10
2018-06-21T16:41:05.229Z,3.90
2018-06-21T16:43:33.909Z,4.03
2018-06-21T16:46:02.564Z,4.17
2018-06-21T16:48:30.982Z,4.33
2018-06-21T16:50:59.449Z,4.10
2018-06-21T16:53:27.886Z,3.87
2018-06-21T16:55:56.829Z,3.80
2018-06-21T16:58:25.257Z,4.17
2018-06-21T17:00:53.729Z,4.20
2018-06-21T17:03:22.320Z,3.77
2018-06-21T17:05:51.208Z,3.63
2018-06-21T17:08:19.800Z,3.67
2018-06-21T17:10:48.675Z,3.77
2018-06-21T17:13:17.366Z,3.50
2018-06-21T17:15:46.155Z,3.57
2018-06-21T17:18:14.761Z,3.80
2018-06-21T17:20:43.229Z,3.67
2018-06-21T17:23:12.657Z,4.07
2018-06-21T17:25:41.205Z,3.80
2018-06-21T17:28:09.969Z,3.70
2018-06-21T17:30:39.463Z,3.90
2018-06-21T17:33:08.079Z,3.63
2018-06-21T17:35:36.780Z,3.40
2018-06-21T17:38:05.678Z,3.50
2018-06-21T17:40:34.351Z,3.57
2018-06-21T17:43:02.855Z,4.10
2018-06-21T17:45:31.930Z,4.00
2018-06-21T17:48:01.690Z,5.03
2018-06-21T17:50:30.402Z,4.63
2018-06-21T17:52:59.073Z,4.90
2018-06-21T17:55:27.514Z,4.80
2018-06-21T17:57:56.106Z,4.33
2018-06-21T18:00:25.812Z,4.57
2018-06-21T18:02:54.345Z,3.43
2018-06-21T18:05:22.957Z,3.80
2018-06-21T18:07:51.452Z,3.60
2018-06-21T18:10:20.325Z,3.20
2018-06-21T18:12:49.341Z,3.40
2018-06-21T18:15:18.286Z,3.27
2018-06-21T18:17:46.754Z,3.53
2018-06-21T18:20:15.197Z,3.87
2018-06-21T18:22:43.858Z,3.60
2018-06-21T18:25:12.944Z,3.80
2018-06-21T18:27:41.676Z,3.90
2018-06-21T18:30:10.237Z,4.17
2018-06-21T18:32:40.076Z,3.60
2018-06-21T18:35:08.865Z,3.90
2018-06-21T18:37:38.385Z,3.93
2018-06-21T18:40:07.638Z,4.07
2018-06-21T18:42:36.315Z,4.20
2018-06-21T18:45:06.174Z,3.70
2018-06-21T18:47:34.823Z,3.80
2018-06-21T18:50:03.544Z,3.23
2018-06-21T18:52:32.244Z,3.40
2018-06-21T18:55:01.213Z,3.67
2018-06-21T18:57:29.714Z,3.30
2018-06-21T18:59:58.517Z,3.80
2018-06-21T19:02:27.118Z,3.73
2018-06-21T19:04:55.641Z,3.90
2018-06-21T19:07:30.092Z,3.80
2018-06-21T19:10:04.713Z,3.50
2018-06-21T19:12:33.519Z,3.50
2018-06-21T19:15:02.346Z,3.70
2018-06-21T19:17:31.210Z,3.53
2018-06-21T19:19:59.710Z,3.20
2018-06-21T19:22:28.428Z,2.77
2018-06-21T19:24:56.966Z,3.30
2018-06-21T19:27:25.400Z,3.00
2018-06-21T19:29:53.944Z,2.87
2018-06-21T19:32:22.513Z,3.10
2018-06-21T19:34:51.662Z,3.10
2018-06-21T19:37:20.081Z,3.10
2018-06-21T19:39:48.985Z,3.30
2018-06-21T19:42:17.552Z,3.10
2018-06-21T19:44:46.908Z,3.03
2018-06-21T19:47:15.343Z,4.67
2018-06-21T19:49:43.843Z,3.40
2018-06-21T19:52:12.774Z,3.43
2018-06-21T19:54:41.352Z,4.00
2018-06-21T19:57:10.635Z,5.03
2018-06-21T19:59:39.198Z,3.60
2018-06-21T20:02:07.829Z,3.57
2018-06-21T20:04:36.766Z,3.77
2018-06-21T20:07:06.386Z,3.63
2018-06-21T20:09:35.376Z,3.53
2018-06-21T20:12:04.132Z,3.70
2018-06-21T20:14:32.782Z,3.90
2018-06-21T20:17:02.860Z,3.93
2018-06-21T20:19:35.682Z,4.00
2018-06-21T20:22:04.497Z,6.33
2018-06-21T20:24:33.360Z,4.10
2018-06-21T20:27:01.904Z,4.37
2018-06-21T20:29:31.442Z,4.60
2018-06-21T20:31:59.889Z,6.40
2018-06-21T20:34:28.624Z,4.47
2018-06-21T20:36:58.409Z,5.03
2018-06-21T20:39:26.949Z,4.70
2018-06-21T20:41:55.376Z,6.87
2018-06-21T20:44:23.780Z,5.00
2018-06-21T20:46:53.145Z,4.90
2018-06-21T20:49:21.583Z,6.67
2018-06-21T20:51:50.259Z,4.60
2018-06-21T20:54:18.830Z,4.90
2018-06-21T20:56:47.422Z,5.13
2018-06-21T20:59:17.280Z,7.17
2018-06-21T21:01:45.644Z,5.13
2018-06-21T21:04:14.356Z,5.43
2018-06-21T21:06:43.249Z,8.00
2018-06-21T21:09:12.202Z,5.53
2018-06-21T21:11:41.692Z,5.40
2018-06-21T21:14:11.148Z,5.50
2018-06-21T21:16:39.645Z,7.80
2018-06-21T21:19:08.361Z,4.93
2018-06-21T21:21:37.376Z,5.00
2018-06-21T21:24:05.935Z,6.90
2018-06-21T21:26:35.408Z,4.50
2018-06-21T21:29:04.406Z,4.70
2018-06-21T21:31:33.031Z,4.63
2018-06-21T21:34:01.481Z,6.73
2018-06-21T21:36:30.885Z,4.73
2018-06-21T21:38:59.449Z,4.63
2018-06-21T21:41:28.330Z,4.57
2018-06-21T21:43:56.958Z,5.50
2018-06-21T21:46:25.866Z,3.87
2018-06-21T21:48:55.011Z,3.70
2018-06-21T21:51:23.457Z,2.83
2018-06-21T21:53:52.120Z,3.00
